Time,TemperatureF,DewpointF,PressureIn,WindDirection,WindDirectionDegrees,WindSpeedMPH,WindSpeedGustMPH,Humidity,HourlyPrecipIn,Conditions,Clouds,dailyrainin,SoftwareType,DateUTC
2013-08-30 00:00:00,74.0,71.2,29.97,SSE,162,0.0,2.0,91,0.00,,CLR,0.00,VWS V14.01,2013-08-30 05:00:00,
2013-08-30 00:03:00,74.0,71.2,29.98,South,191,1.0,2.0,91,0.00,,CLR,0.00,VWS V14.01,2013-08-30 05:03:00,
2013-08-30 00:08:00,74.0,71.2,29.97,SSE,153,0.0,0.0,91,0.00,,CLR,0.00,VWS V14.01,2013-08-30 05:08:00,
2013-08-30 00:10:00,74.0,71.2,29.97,SSE,153,0.0,2.0,91,0.00,,CLR,0.00,VWS V14.01,2013-08-30 05:10:00,
2013-08-30 00:13:00,74.0,71.2,29.98,SSW,193,0.0,2.0,91,0.00,,CLR,0.00,VWS V14.01,2013-08-30 05:13:00,
2013-08-30 00:18:00,74.0,71.2,29.97,South,191,0.0,0.0,91,0.00,,CLR,0.00,VWS V14.01,2013-08-30 05:18:00,
2013-08-30 00:20:00,73.9,71.1,29.97,South,191,0.0,2.0,91,0.00,,CLR,0.00,VWS V14.01,2013-08-30 05:20:00,
2013-08-30 00:23:00,73.9,71.1,29.97,SSE,160,0.0,0.0,91,0.00,,CLR,0.00,VWS V14.01,2013-08-30 05:23:00,
2013-08-30 00:28:00,73.9,71.1,29.97,SSE,150,0.0,0.0,91,0.00,,CLR,0.00,VWS V14.01,2013-08-30 05:28:00,
2013-08-30 00:30:00,73.9,71.1,29.97,SSE,150,0.0,0.0,91,0.00,,CLR,0.00,VWS V14.01,2013-08-30 05:30:00,
2013-08-30 00:33:00,73.9,71.1,29.97,SE,133,1.0,1.0,91,0.00,,CLR,0.00,VWS V14.01,2013-08-30 05:33:00,
2013-08-30 00:38:00,73.8,71.0,29.98,SE,131,0.0,0.0,91,0.00,,CLR,0.00,VWS V14.01,2013-08-30 05:38:00,
2013-08-30 00:40:00,73.8,71.0,29.98,SE,131,0.0,1.0,91,0.00,,CLR,0.00,VWS V14.01,2013-08-30 05:40:00,
2013-08-30 00:43:00,73.7,70.9,29.97,SE,131,0.0,0.0,91,0.00,,CLR,0.00,VWS V14.01,2013-08-30 05:43:00,
2013-08-30 00:48:00,73.7,70.9,29.97,SE,131,0.0,0.0,91,0.00,,CLR,0.00,VWS V14.01,2013-08-30 05:48:00,
2013-08-30 00:50:00,73.7,70.9,29.97,SE,131,0.0,1.0,91,0.00,,CLR,0.00,VWS V14.01,2013-08-30 05:50:00,
2013-08-30 00:53:00,73.6,70.8,29.97,SE,131,0.0,0.0,91,0.00,,CLR,0.00,VWS V14.01,2013-08-30 05:53:00,
2013-08-30 00:58:00,73.5,70.7,29.97,SE,131,0.0,0.0,91,0.00,,CLR,0.00,VWS V14.01,2013-08-30 05:58:00,
2013-08-30 01:00:00,73.6,70.8,29.97,SE,131,0.0,0.0,91,0.00,,CLR,0.00,VWS V14.01,2013-08-30 06:00:00,
2013-08-30 01:04:00,73.5,70.7,29.97,SE,131,0.0,0.0,91,0.00,,CLR,0.00,VWS V14.01,2013-08-30 06:04:00,
2013-08-30 01:09:00,73.4,70.6,29.97,SE,131,0.0,0.0,91,0.00,,CLR,0.00,VWS V14.01,2013-08-30 06:09:00,
2013-08-30 01:10:00,73.4,70.6,29.97,SE,131,0.0,0.0,91,0.00,,CLR,0.00,VWS V14.01,2013-08-30 06:10:00,
2013-08-30 01:14:00,73.3,70.5,29.97,SE,129,0.0,1.0,91,0.00,,CLR,0.00,VWS V14.01,2013-08-30 06:14:00,
2013-08-30 01:19:00,73.2,70.4,29.97,SE,128,0.0,0.0,91,0.00,,CLR,0.00,VWS V14.01,2013-08-30 06:19:00,
2013-08-30 01:20:00,73.2,70.4,29.97,SE,128,0.0,1.0,91,0.00,,CLR,0.00,VWS V14.01,2013-08-30 06:20:00,
2013-08-30 01:24:00,73.1,70.3,29.96,SE,143,0.0,0.0,91,0.00,,CLR,0.00,VWS V14.01,2013-08-30 06:24:00,
2013-08-30 01:29:00,73.1,70.3,29.96,SSE,153,0.0,0.0,91,0.00,,CLR,0.00,VWS V14.01,2013-08-30 06:29:00,
2013-08-30 01:30:00,73.1,70.3,29.96,SSE,155,0.0,0.0,91,0.00,,CLR,0.00,VWS V14.01,2013-08-30 06:30:00,
2013-08-30 01:34:00,73.1,70.3,29.96,SE,141,0.0,1.0,91,0.00,,CLR,0.00,VWS V14.01,2013-08-30 06:34:00,
2013-08-30 01:39:00,73.1,70.3,29.96,SSE,148,1.0,1.0,91,0.00,,CLR,0.00,VWS V14.01,2013-08-30 06:39:00,
2013-08-30 01:40:00,73.1,70.3,29.96,SSE,162,0.0,1.0,91,0.00,,CLR,0.00,VWS V14.01,2013-08-30 06:40:00,
2013-08-30 01:44:00,73.1,70.3,29.96,SSE,162,1.0,2.0,91,0.00,,CLR,0.00,VWS V14.01,2013-08-30 06:44:00,
2013-08-30 01:49:00,73.1,70.3,29.96,South,169,1.0,2.0,91,0.00,,CLR,0.00,VWS V14.01,2013-08-30 06:49:00,
2013-08-30 01:50:00,73.1,70.3,29.96,SSE,156,1.0,2.0,91,0.00,,CLR,0.00,VWS V14.01,2013-08-30 06:50:00,
2013-08-30 01:54:00,73.1,70.3,29.96,South,169,0.0,2.0,91,0.00,,CLR,0.00,VWS V14.01,2013-08-30 06:54:00,
2013-08-30 01:59:00,73.0,70.2,29.96,SE,124,1.0,1.0,91,0.00,,CLR,0.00,VWS V14.01,2013-08-30 06:59:00,
2013-08-30 02:00:00,73.1,70.3,29.96,South,169,0.0,2.0,91,0.00,,CLR,0.00,VWS V14.01,2013-08-30 07:00:00,
2013-08-30 02:04:00,72.9,70.1,29.96,South,172,2.0,2.0,91,0.00,,CLR,0.00,VWS V14.01,2013-08-30 07:04:00,
2013-08-30 02:09:00,72.9,70.1,29.96,SE,146,1.0,1.0,91,0.00,,CLR,0.00,VWS V14.01,2013-08-30 07:09:00,
2013-08-30 02:10:00,72.9,70.1,29.96,SSE,160,0.0,2.0,91,0.00,,CLR,0.00,VWS V14.01,2013-08-30 07:10:00,
2013-08-30 02:14:00,72.9,70.1,29.96,SSE,153,0.0,1.0,91,0.00,,CLR,0.00,VWS V14.01,2013-08-30 07:14:00,
2013-08-30 02:19:00,72.8,70.0,29.96,SSE,162,0.0,1.0,91,0.00,,CLR,0.00,VWS V14.01,2013-08-30 07:19:00,
2013-08-30 02:20:00,72.8,70.0,29.96,South,170,0.0,1.0,91,0.00,,CLR,0.00,VWS V14.01,2013-08-30 07:20:00,
2013-08-30 02:24:00,72.8,70.0,29.96,SSE,152,0.0,1.0,91,0.00,,CLR,0.00,VWS V14.01,2013-08-30 07:24:00,
2013-08-30 02:29:00,72.7,69.9,29.96,SSE,153,0.0,1.0,91,0.00,,CLR,0.00,VWS V14.01,2013-08-30 07:29:00,
2013-08-30 02:30:00,72.7,69.9,29.96,SSE,153,1.0,1.0,91,0.00,,CLR,0.00,VWS V14.01,2013-08-30 07:30:00,
2013-08-30 02:34:00,72.6,69.8,29.96,SE,146,0.0,1.0,91,0.00,,CLR,0.00,VWS V14.01,2013-08-30 07:34:00,
2013-08-30 02:39:00,72.6,70.2,29.96,SSE,150,0.0,0.0,92,0.00,,CLR,0.00,VWS V14.01,2013-08-30 07:39:00,
2013-08-30 02:40:00,72.5,70.1,29.96,SE,146,0.0,1.0,92,0.00,,CLR,0.00,VWS V14.01,2013-08-30 07:40:00,
2013-08-30 02:45:00,72.5,70.1,29.96,South,184,0.0,0.0,92,0.00,,CLR,0.00,VWS V14.01,2013-08-30 07:45:00,
2013-08-30 02:50:00,72.4,69.9,29.96,SSE,153,0.0,1.0,92,0.00,,CLR,0.00,VWS V14.01,2013-08-30 07:50:00,
2013-08-30 02:55:00,72.4,69.9,29.96,SSE,153,0.0,1.0,92,0.00,,CLR,0.00,VWS V14.01,2013-08-30 07:55:00,
2013-08-30 03:00:00,72.3,69.8,29.96,SSE,153,0.0,0.0,92,0.00,,CLR,0.00,VWS V14.01,2013-08-30 08:00:00,
2013-08-30 03:05:00,72.3,69.8,29.96,SSE,162,0.0,0.0,92,0.00,,CLR,0.00,VWS V14.01,2013-08-30 08:05:00,
2013-08-30 03:10:00,72.3,69.8,29.95,SSE,162,0.0,0.0,92,0.00,,CLR,0.00,VWS V14.01,2013-08-30 08:10:00,
2013-08-30 03:15:00,72.3,69.8,29.95,SSE,159,0.0,0.0,92,0.00,,CLR,0.00,VWS V14.01,2013-08-30 08:15:00,
2013-08-30 03:20:00,72.2,69.8,29.95,SSE,160,0.0,0.0,92,0.00,,CLR,0.00,VWS V14.01,2013-08-30 08:20:00,
2013-08-30 03:25:00,72.2,69.8,29.95,SSE,166,0.0,0.0,92,0.00,,CLR,0.00,VWS V14.01,2013-08-30 08:25:00,
2013-08-30 03:30:00,72.2,69.8,29.95,SSE,152,0.0,0.0,92,0.00,,CLR,0.00,VWS V14.01,2013-08-30 08:30:00,
2013-08-30 03:35:00,72.2,69.8,29.95,SSE,158,1.0,2.0,92,0.00,,CLR,0.00,VWS V14.01,2013-08-30 08:35:00,
2013-08-30 03:40:00,72.3,69.8,29.95,SSE,158,0.0,2.0,92,0.00,,CLR,0.00,VWS V14.01,2013-08-30 08:40:00,
2013-08-30 03:45:00,72.3,69.8,29.95,SSE,163,0.0,2.0,92,0.00,,CLR,0.00,VWS V14.01,2013-08-30 08:45:00,
2013-08-30 03:50:00,72.2,69.8,29.95,SSE,161,0.0,1.0,92,0.00,,CLR,0.00,VWS V14.01,2013-08-30 08:50:00,
2013-08-30 03:55:00,72.2,69.8,29.95,SSE,152,0.0,1.0,92,0.00,,CLR,0.00,VWS V14.01,2013-08-30 08:55:00,
2013-08-30 04:00:00,72.2,69.8,29.95,SSE,152,0.0,0.0,92,0.00,,CLR,0.00,VWS V14.01,2013-08-30 09:00:00,
2013-08-30 04:05:00,72.1,69.7,29.95,SSE,152,0.0,0.0,92,0.00,,CLR,0.00,VWS V14.01,2013-08-30 09:05:00,
2013-08-30 04:10:00,72.1,69.7,29.95,SSE,153,0.0,0.0,92,0.00,,CLR,0.00,VWS V14.01,2013-08-30 09:10:00,
2013-08-30 04:15:00,72.0,69.6,29.95,SSE,152,0.0,0.0,92,0.00,,CLR,0.00,VWS V14.01,2013-08-30 09:15:00,
2013-08-30 04:20:00,71.8,69.3,29.95,SSE,152,0.0,0.0,92,0.00,,CLR,0.00,VWS V14.01,2013-08-30 09:20:00,
2013-08-30 04:26:00,71.8,69.3,29.95,SSE,147,0.0,0.0,92,0.00,,CLR,0.00,VWS V14.01,2013-08-30 09:26:00,
2013-08-30 04:30:00,71.8,69.3,29.95,SSE,147,0.0,0.0,92,0.00,,CLR,0.00,VWS V14.01,2013-08-30 09:30:00,
2013-08-30 04:31:00,71.7,69.3,29.94,SSE,151,0.0,0.0,92,0.00,,CLR,0.00,VWS V14.01,2013-08-30 09:31:00,
2013-08-30 04:36:00,71.7,69.6,29.94,SE,145,1.0,2.0,93,0.00,,CLR,0.00,VWS V14.01,2013-08-30 09:36:00,
2013-08-30 04:40:00,71.8,69.7,29.94,SE,139,1.0,2.0,93,0.00,,CLR,0.00,VWS V14.01,2013-08-30 09:40:00,
2013-08-30 04:41:00,71.8,69.3,29.94,SSE,156,1.0,2.0,92,0.00,,CLR,0.00,VWS V14.01,2013-08-30 09:41:00,
2013-08-30 04:46:00,71.8,69.3,29.95,SSE,160,1.0,2.0,92,0.00,,CLR,0.00,VWS V14.01,2013-08-30 09:46:00,
2013-08-30 04:50:00,71.8,69.3,29.94,ESE,122,1.0,2.0,92,0.00,,CLR,0.00,VWS V14.01,2013-08-30 09:50:00,
2013-08-30 04:51:00,71.8,69.3,29.94,SE,145,1.0,2.0,92,0.00,,CLR,0.00,VWS V14.01,2013-08-30 09:51:00,
2013-08-30 04:56:00,71.8,69.3,29.94,SE,142,1.0,2.0,92,0.00,,CLR,0.00,VWS V14.01,2013-08-30 09:56:00,
2013-08-30 05:00:00,71.7,69.3,29.94,SSE,153,1.0,2.0,92,0.00,,CLR,0.00,VWS V14.01,2013-08-30 10:00:00,
2013-08-30 05:01:00,71.7,69.6,29.94,SSE,153,1.0,2.0,93,0.00,,CLR,0.00,VWS V14.01,2013-08-30 10:01:00,
2013-08-30 05:06:00,71.6,69.5,29.94,SSE,162,0.0,2.0,93,0.00,,CLR,0.00,VWS V14.01,2013-08-30 10:06:00,
2013-08-30 05:10:00,71.6,69.5,29.94,SSE,153,1.0,2.0,93,0.00,,CLR,0.00,VWS V14.01,2013-08-30 10:10:00,
2013-08-30 05:11:00,71.6,69.5,29.94,SSE,162,1.0,2.0,93,0.00,,CLR,0.00,VWS V14.01,2013-08-30 10:11:00,
2013-08-30 05:16:00,71.6,69.5,29.94,SSE,150,2.0,3.0,93,0.00,,CLR,0.00,VWS V14.01,2013-08-30 10:16:00,
2013-08-30 05:20:00,71.6,69.5,29.94,SSE,160,1.0,3.0,93,0.00,,CLR,0.00,VWS V14.01,2013-08-30 10:20:00,
2013-08-30 05:21:00,71.6,69.5,29.94,SSE,163,1.0,3.0,93,0.00,,CLR,0.00,VWS V14.01,2013-08-30 10:21:00,
2013-08-30 05:26:00,71.5,69.4,29.94,SSE,166,0.0,3.0,93,0.00,,CLR,0.00,VWS V14.01,2013-08-30 10:26:00,
2013-08-30 05:30:00,71.5,69.4,29.94,SSE,166,0.0,3.0,93,0.00,,CLR,0.00,VWS V14.01,2013-08-30 10:30:00,
2013-08-30 05:31:00,71.5,69.4,29.94,SSE,153,0.0,0.0,93,0.00,,CLR,0.00,VWS V14.01,2013-08-30 10:31:00,
2013-08-30 05:36:00,71.4,69.3,29.94,SSE,158,0.0,1.0,93,0.00,,CLR,0.00,VWS V14.01,2013-08-30 10:36:00,
2013-08-30 05:40:00,71.4,69.3,29.94,SSE,160,1.0,2.0,93,0.00,,CLR,0.00,VWS V14.01,2013-08-30 10:40:00,
2013-08-30 05:41:00,71.4,69.3,29.94,SSE,156,0.0,2.0,93,0.00,,CLR,0.00,VWS V14.01,2013-08-30 10:41:00,
2013-08-30 05:46:00,71.4,69.3,29.94,SSE,156,0.0,2.0,93,0.00,,CLR,0.00,VWS V14.01,2013-08-30 10:46:00,
2013-08-30 05:50:00,71.4,69.3,29.94,SSE,156,0.0,2.0,93,0.00,,CLR,0.00,VWS V14.01,2013-08-30 10:50:00,
2013-08-30 05:51:00,71.4,69.3,29.94,SSE,155,0.0,0.0,93,0.00,,CLR,0.00,VWS V14.01,2013-08-30 10:51:00,
2013-08-30 05:56:00,71.4,69.6,29.93,SSE,165,1.0,2.0,94,0.00,,CLR,0.00,VWS V14.01,2013-08-30 10:56:00,
2013-08-30 06:00:00,71.4,69.6,29.93,SW,221,0.0,2.0,94,0.00,,CLR,0.00,VWS V14.01,2013-08-30 11:00:00,
2013-08-30 06:02:00,71.4,69.6,29.94,SSE,162,0.0,2.0,94,0.00,,CLR,0.00,VWS V14.01,2013-08-30 11:02:00,
2013-08-30 06:07:00,71.4,69.6,29.93,SSE,160,0.0,2.0,94,0.00,,CLR,0.00,VWS V14.01,2013-08-30 11:07:00,
2013-08-30 06:10:00,71.4,69.3,29.93,SSE,160,0.0,2.0,93,0.00,,CLR,0.00,VWS V14.01,2013-08-30 11:10:00,
2013-08-30 06:12:00,71.4,69.6,29.93,WSW,248,0.0,1.0,94,0.00,,CLR,0.00,VWS V14.01,2013-08-30 11:12:00,
2013-08-30 06:17:00,71.4,69.6,29.93,WSW,245,0.0,1.0,94,0.00,,CLR,0.00,VWS V14.01,2013-08-30 11:17:00,
2013-08-30 06:20:00,71.4,69.6,29.93,WSW,245,0.0,1.0,94,0.00,,CLR,0.00,VWS V14.01,2013-08-30 11:20:00,
2013-08-30 06:22:00,71.3,69.5,29.94,SW,222,0.0,0.0,94,0.00,,CLR,0.00,VWS V14.01,2013-08-30 11:22:00,
2013-08-30 06:27:00,71.3,69.5,29.93,SSE,160,1.0,2.0,94,0.00,,CLR,0.00,VWS V14.01,2013-08-30 11:27:00,
2013-08-30 06:30:00,71.3,69.5,29.93,SE,138,0.0,2.0,94,0.00,,CLR,0.00,VWS V14.01,2013-08-30 11:30:00,
2013-08-30 06:32:00,71.3,69.5,29.93,SSE,158,0.0,2.0,94,0.00,,CLR,0.00,VWS V14.01,2013-08-30 11:32:00,
2013-08-30 06:37:00,71.4,69.6,29.93,SE,141,0.0,2.0,94,0.00,,CLR,0.00,VWS V14.01,2013-08-30 11:37:00,
2013-08-30 06:40:00,71.4,69.6,29.93,SE,145,0.0,2.0,94,0.00,,CLR,0.00,VWS V14.01,2013-08-30 11:40:00,
2013-08-30 06:42:00,71.4,69.6,29.93,SSE,155,1.0,3.0,94,0.00,,CLR,0.00,VWS V14.01,2013-08-30 11:42:00,
2013-08-30 06:47:00,71.6,69.8,29.93,South,186,0.0,3.0,94,0.00,,CLR,0.00,VWS V14.01,2013-08-30 11:47:00,
2013-08-30 06:50:00,71.6,69.8,29.93,South,169,2.0,3.0,94,0.00,,CLR,0.00,VWS V14.01,2013-08-30 11:50:00,
2013-08-30 06:52:00,71.8,70.0,29.93,SSE,166,0.0,2.0,94,0.00,,CLR,0.00,VWS V14.01,2013-08-30 11:52:00,
2013-08-30 06:57:00,71.9,70.1,29.93,SW,221,0.0,3.0,94,0.00,,CLR,0.00,VWS V14.01,2013-08-30 11:57:00,
2013-08-30 07:00:00,72.0,70.2,29.93,SW,217,0.0,3.0,94,0.00,,CLR,0.00,VWS V14.01,2013-08-30 12:00:00,
2013-08-30 07:02:00,72.2,70.4,29.93,SE,136,0.0,2.0,94,0.00,,,0.00,VWS V14.01,2013-08-30 12:02:00,
2013-08-30 07:07:00,72.5,70.7,29.93,SW,214,0.0,2.0,94,0.00,,,0.00,VWS V14.01,2013-08-30 12:07:00,
2013-08-30 07:10:00,72.5,70.7,29.93,SSE,155,2.0,3.0,94,0.00,,CLR,0.00,VWS V14.01,2013-08-30 12:10:00,
2013-08-30 07:12:00,72.8,71.0,29.92,SSE,159,0.0,3.0,94,0.00,,,0.00,VWS V14.01,2013-08-30 12:12:00,
2013-08-30 07:17:00,73.1,71.0,29.93,West,262,2.0,3.0,93,0.00,,,0.00,VWS V14.01,2013-08-30 12:17:00,
2013-08-30 07:20:00,73.1,71.0,29.93,WSW,248,1.0,3.0,93,0.00,,CLR,0.00,VWS V14.01,2013-08-30 12:20:00,
2013-08-30 07:22:00,73.5,71.4,29.92,WSW,245,0.0,3.0,93,0.00,,,0.00,VWS V14.01,2013-08-30 12:22:00,
2013-08-30 07:27:00,74.0,71.5,29.92,South,173,0.0,3.0,92,0.00,,,0.00,VWS V14.01,2013-08-30 12:27:00,
2013-08-30 07:30:00,74.1,71.6,29.92,South,173,0.0,3.0,92,0.00,,CLR,0.00,VWS V14.01,2013-08-30 12:30:00,
2013-08-30 07:33:00,74.5,71.7,29.93,SW,229,0.0,3.0,91,0.00,,,0.00,VWS V14.01,2013-08-30 12:33:00,
2013-08-30 07:38:00,74.9,72.1,29.93,WSW,240,0.0,3.0,91,0.00,,,0.00,VWS V14.01,2013-08-30 12:38:00,
2013-08-30 07:40:00,74.9,72.1,29.93,WSW,240,0.0,3.0,91,0.00,,CLR,0.00,VWS V14.01,2013-08-30 12:40:00,
2013-08-30 07:43:00,75.4,72.3,29.93,SE,139,0.0,2.0,90,0.00,,CLR,0.00,VWS V14.01,2013-08-30 12:43:00,
2013-08-30 07:48:00,75.9,72.4,29.93,WSW,250,0.0,2.0,89,0.00,,CLR,0.00,VWS V14.01,2013-08-30 12:48:00,
2013-08-30 07:50:00,75.9,72.4,29.93,WSW,250,0.0,2.0,89,0.00,,CLR,0.00,VWS V14.01,2013-08-30 12:50:00,
2013-08-30 07:53:00,76.2,72.7,29.92,West,274,1.0,4.0,89,0.00,,CLR,0.00,VWS V14.01,2013-08-30 12:53:00,
2013-08-30 07:58:00,76.6,72.8,29.93,WSW,243,1.0,4.0,88,0.00,,CLR,0.00,VWS V14.01,2013-08-30 12:58:00,
2013-08-30 08:00:00,76.6,72.8,29.93,WSW,243,1.0,4.0,88,0.00,,CLR,0.00,VWS V14.01,2013-08-30 13:00:00,
2013-08-30 08:03:00,77.0,73.2,29.92,SSW,201,0.0,3.0,88,0.00,,CLR,0.00,VWS V14.01,2013-08-30 13:03:00,
2013-08-30 08:08:00,77.3,73.1,29.92,WSW,245,1.0,2.0,87,0.00,,CLR,0.00,VWS V14.01,2013-08-30 13:08:00,
2013-08-30 08:10:00,77.3,73.1,29.92,WSW,239,0.0,4.0,87,0.00,,CLR,0.00,VWS V14.01,2013-08-30 13:10:00,
2013-08-30 08:13:00,77.6,73.4,29.92,SW,236,1.0,4.0,87,0.00,,CLR,0.00,VWS V14.01,2013-08-30 13:13:00,
2013-08-30 08:18:00,78.0,73.5,29.92,WSW,255,1.0,3.0,86,0.00,,CLR,0.00,VWS V14.01,2013-08-30 13:18:00,
2013-08-30 08:20:00,78.0,73.8,29.92,WSW,250,2.0,4.0,87,0.00,,CLR,0.00,VWS V14.01,2013-08-30 13:20:00,
2013-08-30 08:23:00,78.3,73.8,29.92,West,263,0.0,3.0,86,0.00,,CLR,0.00,VWS V14.01,2013-08-30 13:23:00,
2013-08-30 08:28:00,78.6,74.1,29.92,WSW,246,1.0,3.0,86,0.00,,CLR,0.00,VWS V14.01,2013-08-30 13:28:00,
2013-08-30 08:30:00,78.6,74.1,29.92,WSW,248,3.0,5.0,86,0.00,,CLR,0.00,VWS V14.01,2013-08-30 13:30:00,
2013-08-30 08:33:00,78.9,74.4,29.92,SW,233,1.0,3.0,86,0.00,,CLR,0.00,VWS V14.01,2013-08-30 13:33:00,
2013-08-30 08:38:00,79.1,74.2,29.92,WSW,250,3.0,3.0,85,0.00,,CLR,0.00,VWS V14.01,2013-08-30 13:38:00,
2013-08-30 08:40:00,79.1,74.2,29.92,WSW,249,0.0,5.0,85,0.00,,CLR,0.00,VWS V14.01,2013-08-30 13:40:00,
2013-08-30 08:43:00,79.3,74.4,29.92,South,187,4.0,5.0,85,0.00,,CLR,0.00,VWS V14.01,2013-08-30 13:43:00,
2013-08-30 08:48:00,79.4,74.5,29.92,South,184,1.0,3.0,85,0.00,,CLR,0.00,VWS V14.01,2013-08-30 13:48:00,
2013-08-30 08:50:00,79.4,74.5,29.92,WSW,252,2.0,5.0,85,0.00,,CLR,0.00,VWS V14.01,2013-08-30 13:50:00,
2013-08-30 08:54:00,79.5,74.2,29.92,West,266,0.0,5.0,84,0.00,,CLR,0.00,VWS V14.01,2013-08-30 13:54:00,
2013-08-30 08:59:00,79.7,74.4,29.92,WSW,248,2.0,2.0,84,0.00,,CLR,0.00,VWS V14.01,2013-08-30 13:59:00,
2013-08-30 09:00:00,79.7,74.8,29.92,WSW,240,2.0,5.0,85,0.00,,CLR,0.00,VWS V14.01,2013-08-30 14:00:00,
2013-08-30 09:04:00,79.9,74.6,29.92,WSW,243,3.0,5.0,84,0.00,,CLR,0.00,VWS V14.01,2013-08-30 14:04:00,
2013-08-30 09:09:00,80.3,75.0,29.92,SW,236,1.0,3.0,84,0.00,,CLR,0.00,VWS V14.01,2013-08-30 14:09:00,
2013-08-30 09:10:00,80.2,74.9,29.92,WSW,249,1.0,5.0,84,0.00,,CLR,0.00,VWS V14.01,2013-08-30 14:10:00,
2013-08-30 09:14:00,80.8,75.5,29.92,South,172,1.0,3.0,84,0.00,,CLR,0.00,VWS V14.01,2013-08-30 14:14:00,
2013-08-30 09:19:00,81.4,76.1,29.91,SW,232,1.0,5.0,84,0.00,,CLR,0.00,VWS V14.01,2013-08-30 14:19:00,
2013-08-30 09:20:00,81.2,75.6,29.92,SE,125,1.0,3.0,83,0.00,,CLR,0.00,VWS V14.01,2013-08-30 14:20:00,
2013-08-30 09:24:00,81.9,75.9,29.91,WSW,249,1.0,5.0,82,0.00,,CLR,0.00,VWS V14.01,2013-08-30 14:24:00,
2013-08-30 09:29:00,82.2,75.8,29.91,WSW,256,2.0,3.0,81,0.00,,CLR,0.00,VWS V14.01,2013-08-30 14:29:00,
2013-08-30 09:30:00,82.1,76.1,29.91,SW,224,0.0,5.0,82,0.00,,CLR,0.00,VWS V14.01,2013-08-30 14:30:00,
2013-08-30 09:34:00,82.5,76.1,29.91,West,262,0.0,4.0,81,0.00,,CLR,0.00,VWS V14.01,2013-08-30 14:34:00,
2013-08-30 09:39:00,82.9,76.1,29.91,SSE,168,1.0,3.0,80,0.00,,CLR,0.00,VWS V14.01,2013-08-30 14:39:00,
2013-08-30 09:40:00,82.8,76.4,29.91,WSW,240,1.0,4.0,81,0.00,,CLR,0.00,VWS V14.01,2013-08-30 14:40:00,
2013-08-30 09:44:00,83.2,76.4,29.91,WSW,242,0.0,5.0,80,0.00,,CLR,0.00,VWS V14.01,2013-08-30 14:44:00,
2013-08-30 09:49:00,83.5,76.3,29.91,WSW,246,2.0,3.0,79,0.00,,CLR,0.00,VWS V14.01,2013-08-30 14:49:00,
2013-08-30 09:50:00,83.5,76.3,29.91,SW,236,1.0,5.0,79,0.00,,CLR,0.00,VWS V14.01,2013-08-30 14:50:00,
2013-08-30 09:54:00,83.9,76.7,29.91,WSW,239,1.0,5.0,79,0.00,,CLR,0.00,VWS V14.01,2013-08-30 14:54:00,
2013-08-30 09:59:00,84.4,76.8,29.91,South,170,3.0,4.0,78,0.00,,CLR,0.00,VWS V14.01,2013-08-30 14:59:00,
2013-08-30 10:00:00,84.2,77.0,29.91,WSW,243,1.0,5.0,79,0.00,,CLR,0.00,VWS V14.01,2013-08-30 15:00:00,
2013-08-30 10:04:00,85.0,77.4,29.91,WSW,254,1.0,4.0,78,0.00,,CLR,0.00,VWS V14.01,2013-08-30 15:04:00,
2013-08-30 10:09:00,85.4,77.4,29.90,WSW,243,1.0,3.0,77,0.00,,CLR,0.00,VWS V14.01,2013-08-30 15:09:00,
2013-08-30 10:10:00,85.3,77.7,29.91,WSW,252,1.0,4.0,78,0.00,,CLR,0.00,VWS V14.01,2013-08-30 15:10:00,
2013-08-30 10:15:00,86.0,78.3,29.90,SSW,200,0.0,3.0,78,0.00,,CLR,0.00,VWS V14.01,2013-08-30 15:15:00,
2013-08-30 10:20:00,86.3,77.4,29.90,WSW,252,0.0,2.0,75,0.00,,CLR,0.00,VWS V14.01,2013-08-30 15:20:00,
2013-08-30 10:25:00,86.6,77.3,29.90,West,268,1.0,3.0,74,0.00,,CLR,0.00,VWS V14.01,2013-08-30 15:25:00,
2013-08-30 10:30:00,86.6,77.7,29.90,WSW,244,1.0,4.0,75,0.00,,CLR,0.00,VWS V14.01,2013-08-30 15:30:00,
2013-08-30 10:35:00,86.7,77.4,29.89,WSW,256,4.0,5.0,74,0.00,,CLR,0.00,VWS V14.01,2013-08-30 15:35:00,
2013-08-30 10:40:00,86.9,77.6,29.89,WNW,302,1.0,3.0,74,0.00,,CLR,0.00,VWS V14.01,2013-08-30 15:40:00,
2013-08-30 10:45:00,87.1,77.0,29.89,West,269,1.0,3.0,72,0.00,,CLR,0.00,VWS V14.01,2013-08-30 15:45:00,
2013-08-30 10:50:00,87.6,77.5,29.89,West,266,2.0,2.0,72,0.00,,CLR,0.00,VWS V14.01,2013-08-30 15:50:00,
2013-08-30 10:55:00,88.2,77.6,29.89,WSW,241,0.0,2.0,71,0.00,,CLR,0.00,VWS V14.01,2013-08-30 15:55:00,
2013-08-30 11:00:00,88.3,76.8,29.89,WSW,242,1.0,2.0,69,0.00,,SCT060,0.00,VWS V14.01,2013-08-30 16:00:00,
2013-08-30 11:05:00,88.4,76.9,29.89,West,281,1.0,2.0,69,0.00,,SCT060,0.00,VWS V14.01,2013-08-30 16:05:00,
2013-08-30 11:10:00,88.3,76.8,29.89,West,280,0.0,4.0,69,0.00,,SCT060,0.00,VWS V14.01,2013-08-30 16:10:00,
2013-08-30 11:15:00,88.7,77.2,29.89,SW,214,1.0,5.0,69,0.00,,SCT060,0.00,VWS V14.01,2013-08-30 16:15:00,
2013-08-30 11:20:00,88.9,77.0,29.89,SW,218,3.0,5.0,68,0.00,,SCT060,0.00,VWS V14.01,2013-08-30 16:20:00,
2013-08-30 11:25:00,89.1,77.2,29.89,NW,319,0.0,5.0,68,0.00,,SCT060,0.00,VWS V14.01,2013-08-30 16:25:00,
2013-08-30 11:30:00,89.3,76.9,29.89,West,259,1.0,6.0,67,0.00,,SCT060,0.00,VWS V14.01,2013-08-30 16:30:00,
2013-08-30 11:35:00,89.4,77.0,29.89,NW,311,2.0,6.0,67,0.00,,SCT060,0.00,VWS V14.01,2013-08-30 16:35:00,
2013-08-30 11:40:00,89.6,77.2,29.88,SW,228,1.0,2.0,67,0.00,,CLR,0.00,VWS V14.01,2013-08-30 16:40:00,
2013-08-30 11:45:00,90.0,77.1,29.88,SW,226,1.0,3.0,66,0.00,,CLR,0.00,VWS V14.01,2013-08-30 16:45:00,
2013-08-30 11:50:00,90.2,76.8,29.88,WSW,246,0.0,6.0,65,0.00,,CLR,0.00,VWS V14.01,2013-08-30 16:50:00,
2013-08-30 11:56:00,90.4,77.5,29.88,West,263,1.0,6.0,66,0.00,,CLR,0.00,VWS V14.01,2013-08-30 16:56:00,
2013-08-30 12:00:00,90.4,77.5,29.88,WNW,297,1.0,6.0,66,0.00,,CLR,0.00,VWS V14.01,2013-08-30 17:00:00,
2013-08-30 12:01:00,90.6,77.2,29.88,WSW,243,1.0,3.0,65,0.00,,CLR,0.00,VWS V14.01,2013-08-30 17:01:00,
2013-08-30 12:06:00,91.1,77.7,29.88,WSW,248,1.0,3.0,65,0.00,,CLR,0.00,VWS V14.01,2013-08-30 17:06:00,
2013-08-30 12:10:00,91.3,77.4,29.88,SSW,195,1.0,3.0,64,0.00,,CLR,0.00,VWS V14.01,2013-08-30 17:10:00,
2013-08-30 12:11:00,91.3,76.9,29.88,SW,222,4.0,7.0,63,0.00,,CLR,0.00,VWS V14.01,2013-08-30 17:11:00,
2013-08-30 12:16:00,91.3,76.9,29.88,SW,232,3.0,7.0,63,0.00,,CLR,0.00,VWS V14.01,2013-08-30 17:16:00,
2013-08-30 12:20:00,91.3,76.9,29.87,West,278,0.0,7.0,63,0.00,,CLR,0.00,VWS V14.01,2013-08-30 17:20:00,
2013-08-30 12:21:00,91.5,77.6,29.87,WSW,237,4.0,4.0,64,0.00,,CLR,0.00,VWS V14.01,2013-08-30 17:21:00,
2013-08-30 12:26:00,91.8,76.9,29.87,WSW,240,2.0,4.0,62,0.00,,CLR,0.00,VWS V14.01,2013-08-30 17:26:00,
2013-08-30 12:30:00,91.9,77.0,29.87,WSW,257,2.0,5.0,62,0.00,,CLR,0.00,VWS V14.01,2013-08-30 17:30:00,
2013-08-30 12:31:00,92.0,77.1,29.86,SSW,203,1.0,5.0,62,0.00,,CLR,0.00,VWS V14.01,2013-08-30 17:31:00,
2013-08-30 12:36:00,92.2,77.3,29.86,WSW,237,1.0,5.0,62,0.00,,CLR,0.00,VWS V14.01,2013-08-30 17:36:00,
2013-08-30 12:40:00,92.4,78.0,29.86,SSW,200,2.0,5.0,63,0.00,,CLR,0.00,VWS V14.01,2013-08-30 17:40:00,
2013-08-30 12:41:00,92.8,77.4,29.86,WSW,242,2.0,3.0,61,0.00,,CLR,0.00,VWS V14.01,2013-08-30 17:41:00,
2013-08-30 12:46:00,92.7,76.8,29.86,SW,229,3.0,5.0,60,0.00,,CLR,0.00,VWS V14.01,2013-08-30 17:46:00,
2013-08-30 12:50:00,92.7,77.3,29.86,WSW,243,3.0,5.0,61,0.00,,CLR,0.00,VWS V14.01,2013-08-30 17:50:00,
2013-08-30 12:51:00,92.9,77.0,29.86,NW,314,3.0,5.0,60,0.00,,CLR,0.00,VWS V14.01,2013-08-30 17:51:00,
2013-08-30 12:56:00,93.1,77.2,29.86,WNW,290,2.0,5.0,60,0.00,,CLR,0.00,VWS V14.01,2013-08-30 17:56:00,
2013-08-30 13:00:00,93.2,76.2,29.86,SW,225,1.0,5.0,58,0.00,,CLR,0.00,VWS V14.01,2013-08-30 18:00:00,
2013-08-30 13:01:00,93.3,76.8,29.86,West,262,1.0,4.0,59,0.00,,CLR,0.00,VWS V14.01,2013-08-30 18:01:00,
2013-08-30 13:06:00,93.7,77.2,29.85,WSW,238,1.0,4.0,59,0.00,,CLR,0.00,VWS V14.01,2013-08-30 18:06:00,
2013-08-30 13:10:00,93.8,77.3,29.85,NW,308,1.0,4.0,59,0.00,,CLR,0.00,VWS V14.01,2013-08-30 18:10:00,
2013-08-30 13:11:00,94.2,77.2,29.85,West,271,1.0,2.0,58,0.00,,CLR,0.00,VWS V14.01,2013-08-30 18:11:00,
2013-08-30 13:16:00,94.4,74.6,29.85,SE,125,1.0,6.0,53,0.00,,CLR,0.00,VWS V14.01,2013-08-30 18:16:00,
2013-08-30 13:20:00,94.3,76.2,29.85,WSW,250,0.0,6.0,56,0.00,,CLR,0.00,VWS V14.01,2013-08-30 18:20:00,
2013-08-30 13:21:00,94.6,75.9,29.85,WSW,252,0.0,0.0,55,0.00,,CLR,0.00,VWS V14.01,2013-08-30 18:21:00,
2013-08-30 13:26:00,95.0,76.3,29.85,West,267,2.0,3.0,55,0.00,,CLR,0.00,VWS V14.01,2013-08-30 18:26:00,
2013-08-30 13:30:00,94.9,75.7,29.85,SSE,152,3.0,5.0,54,0.00,,CLR,0.00,VWS V14.01,2013-08-30 18:30:00,
2013-08-30 13:31:00,95.1,76.4,29.85,West,277,2.0,3.0,55,0.00,,CLR,0.00,VWS V14.01,2013-08-30 18:31:00,
2013-08-30 13:37:00,95.6,74.6,29.85,NNW,345,1.0,3.0,51,0.00,,CLR,0.00,VWS V14.01,2013-08-30 18:37:00,
2013-08-30 13:40:00,95.6,75.2,29.85,North,5,1.0,3.0,52,0.00,,CLR,0.00,VWS V14.01,2013-08-30 18:40:00,
2013-08-30 13:42:00,95.5,74.5,29.85,NW,307,0.0,2.0,51,0.00,,CLR,0.00,VWS V14.01,2013-08-30 18:42:00,
2013-08-30 13:47:00,95.6,74.0,29.85,NW,319,1.0,5.0,50,0.00,,CLR,0.00,VWS V14.01,2013-08-30 18:47:00,
2013-08-30 13:50:00,95.6,74.0,29.85,NW,316,0.0,5.0,50,0.00,,CLR,0.00,VWS V14.01,2013-08-30 18:50:00,
2013-08-30 13:52:00,95.6,74.6,29.84,SE,128,1.0,2.0,51,0.00,,CLR,0.00,VWS V14.01,2013-08-30 18:52:00,
2013-08-30 13:57:00,95.7,74.7,29.85,NE,40,3.0,3.0,51,0.00,,CLR,0.00,VWS V14.01,2013-08-30 18:57:00,
2013-08-30 14:00:00,95.7,74.7,29.85,WNW,298,1.0,3.0,51,0.00,,CLR,0.00,VWS V14.01,2013-08-30 19:00:00,
2013-08-30 14:02:00,95.6,74.0,29.85,NNW,340,2.0,5.0,50,0.00,,CLR,0.00,VWS V14.01,2013-08-30 19:02:00,
2013-08-30 14:07:00,95.4,72.6,29.84,West,277,2.0,6.0,48,0.00,,CLR,0.00,VWS V14.01,2013-08-30 19:07:00,
2013-08-30 14:10:00,95.4,73.2,29.84,WSW,253,1.0,6.0,49,0.00,,CLR,0.00,VWS V14.01,2013-08-30 19:10:00,
2013-08-30 14:12:00,95.4,73.2,29.84,West,262,2.0,2.0,49,0.00,,CLR,0.00,VWS V14.01,2013-08-30 19:12:00,
2013-08-30 14:17:00,95.7,73.5,29.84,South,179,2.0,5.0,49,0.00,,CLR,0.00,VWS V14.01,2013-08-30 19:17:00,
2013-08-30 14:20:00,95.7,73.5,29.84,SSW,201,0.0,5.0,49,0.00,,CLR,0.00,VWS V14.01,2013-08-30 19:20:00,
2013-08-30 14:22:00,96.0,73.8,29.84,NNW,329,1.0,5.0,49,0.00,,CLR,0.00,VWS V14.01,2013-08-30 19:22:00,
2013-08-30 14:27:00,96.0,73.2,29.84,West,280,2.0,7.0,48,0.00,,CLR,0.00,VWS V14.01,2013-08-30 19:27:00,
2013-08-30 14:30:00,96.0,73.2,29.84,WNW,290,0.0,7.0,48,0.00,,CLR,0.00,VWS V14.01,2013-08-30 19:30:00,
2013-08-30 14:32:00,96.0,73.2,29.83,WSW,238,7.0,8.0,48,0.00,,CLR,0.00,VWS V14.01,2013-08-30 19:32:00,
2013-08-30 14:37:00,96.1,72.6,29.83,West,264,2.0,9.0,47,0.00,,CLR,0.00,VWS V14.01,2013-08-30 19:37:00,
2013-08-30 14:40:00,96.1,72.6,29.83,SW,235,1.0,9.0,47,0.00,,CLR,0.00,VWS V14.01,2013-08-30 19:40:00,
2013-08-30 14:42:00,96.2,71.4,29.82,WSW,248,1.0,5.0,45,0.00,,CLR,0.00,VWS V14.01,2013-08-30 19:42:00,
2013-08-30 14:47:00,96.2,70.8,29.83,WNW,298,1.0,6.0,44,0.00,,CLR,0.00,VWS V14.01,2013-08-30 19:47:00,
2013-08-30 14:50:00,96.2,71.4,29.83,NW,311,1.0,6.0,45,0.00,,CLR,0.00,VWS V14.01,2013-08-30 19:50:00,
2013-08-30 14:52:00,96.2,68.0,29.82,NW,318,0.0,3.0,40,0.00,,CLR,0.00,VWS V14.01,2013-08-30 19:52:00,
2013-08-30 14:57:00,96.5,70.4,29.82,South,186,1.0,3.0,43,0.00,,CLR,0.00,VWS V14.01,2013-08-30 19:57:00,
2013-08-30 15:00:00,96.6,69.1,29.82,West,269,1.0,3.0,41,0.00,,CLR,0.00,VWS V14.01,2013-08-30 20:00:00,
2013-08-30 15:02:00,96.7,69.8,29.82,NNW,342,1.0,3.0,42,0.00,,CLR,0.00,VWS V14.01,2013-08-30 20:02:00,
2013-08-30 15:07:00,96.6,67.6,29.82,NW,311,1.0,3.0,39,0.00,,CLR,0.00,VWS V14.01,2013-08-30 20:07:00,
2013-08-30 15:10:00,96.5,67.5,29.82,NW,311,0.0,3.0,39,0.00,,CLR,0.00,VWS V14.01,2013-08-30 20:10:00,
2013-08-30 15:13:00,96.4,67.4,29.82,West,263,1.0,4.0,39,0.00,,CLR,0.00,VWS V14.01,2013-08-30 20:13:00,
2013-08-30 15:18:00,96.3,69.5,29.82,ENE,75,0.0,4.0,42,0.00,,CLR,0.00,VWS V14.01,2013-08-30 20:18:00,
2013-08-30 15:20:00,96.3,69.5,29.82,ENE,76,0.0,4.0,42,0.00,,CLR,0.00,VWS V14.01,2013-08-30 20:20:00,
2013-08-30 15:23:00,96.3,69.5,29.82,NW,324,0.0,2.0,42,0.00,,CLR,0.00,VWS V14.01,2013-08-30 20:23:00,
2013-08-30 15:28:00,96.1,70.0,29.82,WSW,249,1.0,4.0,43,0.00,,CLR,0.00,VWS V14.01,2013-08-30 20:28:00,
2013-08-30 15:30:00,96.1,70.0,29.82,WSW,248,1.0,4.0,43,0.00,,CLR,0.00,VWS V14.01,2013-08-30 20:30:00,
2013-08-30 15:33:00,96.1,70.0,29.82,NW,318,2.0,7.0,43,0.00,,CLR,0.00,VWS V14.01,2013-08-30 20:33:00,
2013-08-30 15:38:00,95.9,69.8,29.82,SSW,200,4.0,7.0,43,0.00,,CLR,0.00,VWS V14.01,2013-08-30 20:38:00,
2013-08-30 15:40:00,95.9,69.8,29.82,SSW,200,4.0,7.0,43,0.00,,CLR,0.00,VWS V14.01,2013-08-30 20:40:00,
2013-08-30 15:43:00,95.6,70.9,29.82,NW,315,1.0,5.0,45,0.00,,CLR,0.00,VWS V14.01,2013-08-30 20:43:00,
2013-08-30 15:48:00,95.3,70.6,29.81,WSW,257,3.0,3.0,45,0.00,,CLR,0.00,VWS V14.01,2013-08-30 20:48:00,
2013-08-30 15:50:00,95.3,70.6,29.81,SW,226,2.0,6.0,45,0.00,,CLR,0.00,VWS V14.01,2013-08-30 20:50:00,
2013-08-30 15:53:00,95.2,70.5,29.81,WNW,291,2.0,6.0,45,0.00,,CLR,0.00,VWS V14.01,2013-08-30 20:53:00,
2013-08-30 15:58:00,95.2,70.5,29.81,WSW,250,1.0,3.0,45,0.00,,CLR,0.00,VWS V14.01,2013-08-30 20:58:00,
2013-08-30 16:00:00,95.2,70.5,29.81,WSW,249,3.0,6.0,45,0.00,,CLR,0.00,VWS V14.01,2013-08-30 21:00:00,
2013-08-30 16:03:00,95.3,71.3,29.81,WSW,251,0.0,3.0,46,0.00,,CLR,0.00,VWS V14.01,2013-08-30 21:03:00,
2013-08-30 16:08:00,95.2,71.2,29.81,NW,307,0.0,0.0,46,0.00,,CLR,0.00,VWS V14.01,2013-08-30 21:08:00,
2013-08-30 16:10:00,95.3,71.3,29.81,NW,306,0.0,5.0,46,0.00,,CLR,0.00,VWS V14.01,2013-08-30 21:10:00,
2013-08-30 16:13:00,94.7,70.7,29.81,NW,319,0.0,1.0,46,0.00,,CLR,0.00,VWS V14.01,2013-08-30 21:13:00,
2013-08-30 16:18:00,94.1,71.4,29.81,WSW,250,2.0,2.0,48,0.00,,CLR,0.00,VWS V14.01,2013-08-30 21:18:00,
2013-08-30 16:20:00,94.1,71.4,29.81,NW,312,0.0,2.0,48,0.00,,CLR,0.00,VWS V14.01,2013-08-30 21:20:00,
2013-08-30 16:23:00,94.2,72.1,29.81,WSW,250,0.0,2.0,49,0.00,,CLR,0.00,VWS V14.01,2013-08-30 21:23:00,
2013-08-30 16:28:00,94.5,71.8,29.81,NW,307,2.0,2.0,48,0.00,,CLR,0.00,VWS V14.01,2013-08-30 21:28:00,
2013-08-30 16:30:00,94.5,71.8,29.81,West,278,1.0,7.0,48,0.00,,CLR,0.00,VWS V14.01,2013-08-30 21:30:00,
2013-08-30 16:33:00,94.2,72.7,29.80,West,259,0.0,2.0,50,0.00,,CLR,0.00,VWS V14.01,2013-08-30 21:33:00,
2013-08-30 16:38:00,93.7,72.3,29.80,WNW,288,0.0,0.0,50,0.00,,CLR,0.00,VWS V14.01,2013-08-30 21:38:00,
2013-08-30 16:40:00,93.7,72.3,29.80,WNW,288,0.0,2.0,50,0.00,,CLR,0.00,VWS V14.01,2013-08-30 21:40:00,
2013-08-30 16:43:00,93.6,72.8,29.80,NW,307,1.0,2.0,51,0.00,,CLR,0.00,VWS V14.01,2013-08-30 21:43:00,
2013-08-30 16:48:00,93.6,73.3,29.80,NW,311,0.0,1.0,52,0.00,,CLR,0.00,VWS V14.01,2013-08-30 21:48:00,
2013-08-30 16:50:00,93.6,72.8,29.80,NW,309,1.0,3.0,51,0.00,,CLR,0.00,VWS V14.01,2013-08-30 21:50:00,
2013-08-30 16:54:00,93.6,74.5,29.80,SW,226,0.0,2.0,54,0.00,,CLR,0.00,VWS V14.01,2013-08-30 21:54:00,
2013-08-30 16:59:00,93.4,73.2,29.80,WSW,237,0.0,1.0,52,0.00,,CLR,0.00,VWS V14.01,2013-08-30 21:59:00,
2013-08-30 17:00:00,93.4,73.2,29.80,SW,236,1.0,2.0,52,0.00,,CLR,0.00,VWS V14.01,2013-08-30 22:00:00,
2013-08-30 17:04:00,93.3,73.1,29.79,WNW,291,2.0,2.0,52,0.00,,CLR,0.00,VWS V14.01,2013-08-30 22:04:00,
2013-08-30 17:09:00,93.1,71.7,29.79,WNW,301,1.0,2.0,50,0.00,,CLR,0.00,VWS V14.01,2013-08-30 22:09:00,
2013-08-30 17:10:00,93.2,71.8,29.79,NW,315,1.0,3.0,50,0.00,,CLR,0.00,VWS V14.01,2013-08-30 22:10:00,
2013-08-30 17:14:00,93.1,71.1,29.79,NW,305,0.0,2.0,49,0.00,,CLR,0.00,VWS V14.01,2013-08-30 22:14:00,
2013-08-30 17:19:00,93.0,71.6,29.79,WSW,245,1.0,1.0,50,0.00,,CLR,0.00,VWS V14.01,2013-08-30 22:19:00,
2013-08-30 17:20:00,93.1,71.7,29.79,WNW,283,0.0,2.0,50,0.00,,CLR,0.00,VWS V14.01,2013-08-30 22:20:00,
2013-08-30 17:24:00,93.1,71.7,29.78,West,270,0.0,4.0,50,0.00,,CLR,0.00,VWS V14.01,2013-08-30 22:24:00,
2013-08-30 17:29:00,93.2,71.8,29.78,West,277,1.0,1.0,50,0.00,,CLR,0.00,VWS V14.01,2013-08-30 22:29:00,
2013-08-30 17:30:00,93.2,71.2,29.78,SW,229,1.0,4.0,49,0.00,,CLR,0.00,VWS V14.01,2013-08-30 22:30:00,
2013-08-30 17:34:00,93.3,73.6,29.78,NW,318,0.0,2.0,53,0.00,,CLR,0.00,VWS V14.01,2013-08-30 22:34:00,
2013-08-30 17:39:00,93.0,72.8,29.78,NW,320,0.0,0.0,52,0.00,,CLR,0.00,VWS V14.01,2013-08-30 22:39:00,
2013-08-30 17:40:00,93.1,72.9,29.78,NW,318,0.0,2.0,52,0.00,,CLR,0.00,VWS V14.01,2013-08-30 22:40:00,
2013-08-30 17:44:00,92.8,72.0,29.78,WNW,294,0.0,0.0,51,0.00,,CLR,0.00,VWS V14.01,2013-08-30 22:44:00,
2013-08-30 17:49:00,92.5,72.3,29.78,WNW,295,0.0,0.0,52,0.00,,CLR,0.00,VWS V14.01,2013-08-30 22:49:00,
2013-08-30 17:50:00,92.6,72.4,29.78,WNW,295,0.0,0.0,52,0.00,,CLR,0.00,VWS V14.01,2013-08-30 22:50:00,
2013-08-30 17:54:00,92.3,72.1,29.78,WSW,239,0.0,0.0,52,0.00,,CLR,0.00,VWS V14.01,2013-08-30 22:54:00,
2013-08-30 17:59:00,92.0,71.3,29.78,WSW,239,0.0,0.0,51,0.00,,CLR,0.00,VWS V14.01,2013-08-30 22:59:00,
2013-08-30 18:00:00,92.1,72.0,29.78,WSW,239,0.0,0.0,52,0.00,,CLR,0.00,VWS V14.01,2013-08-30 23:00:00,
2013-08-30 18:04:00,91.8,71.7,29.78,WSW,239,0.0,0.0,52,0.00,,CLR,0.00,VWS V14.01,2013-08-30 23:04:00,
2013-08-30 18:09:00,91.7,71.6,29.78,WNW,288,0.0,0.0,52,0.00,,CLR,0.00,VWS V14.01,2013-08-30 23:09:00,
2013-08-30 18:10:00,91.7,72.2,29.78,NW,324,0.0,0.0,53,0.00,,CLR,0.00,VWS V14.01,2013-08-30 23:10:00,
2013-08-30 18:14:00,91.7,72.2,29.78,WNW,288,0.0,0.0,53,0.00,,CLR,0.00,VWS V14.01,2013-08-30 23:14:00,
2013-08-30 18:19:00,91.5,73.1,29.78,WNW,288,0.0,0.0,55,0.00,,CLR,0.00,VWS V14.01,2013-08-30 23:19:00,
2013-08-30 18:20:00,91.6,72.1,29.78,WNW,288,0.0,0.0,53,0.00,,CLR,0.00,VWS V14.01,2013-08-30 23:20:00,
2013-08-30 18:24:00,91.3,72.3,29.78,WNW,287,0.0,3.0,54,0.00,,CLR,0.00,VWS V14.01,2013-08-30 23:24:00,
2013-08-30 18:29:00,91.0,72.6,29.79,WNW,287,0.0,1.0,55,0.00,,CLR,0.00,VWS V14.01,2013-08-30 23:29:00,
2013-08-30 18:30:00,91.1,72.7,29.79,WNW,287,0.0,3.0,55,0.00,,CLR,0.00,VWS V14.01,2013-08-30 23:30:00,
2013-08-30 18:35:00,90.8,72.9,29.79,WNW,287,0.0,1.0,56,0.00,,CLR,0.00,VWS V14.01,2013-08-30 23:35:00,
2013-08-30 18:40:00,90.5,73.2,29.79,WNW,287,0.0,0.0,57,0.00,,CLR,0.00,VWS V14.01,2013-08-30 23:40:00,
2013-08-30 18:45:00,90.2,73.4,29.79,WNW,287,0.0,0.0,58,0.00,,CLR,0.00,VWS V14.01,2013-08-30 23:45:00,
2013-08-30 18:50:00,89.8,73.1,29.79,WNW,287,0.0,0.0,58,0.00,,CLR,0.00,VWS V14.01,2013-08-30 23:50:00,
2013-08-30 18:55:00,89.5,72.8,29.79,WNW,287,0.0,0.0,58,0.00,,CLR,0.00,VWS V14.01,2013-08-30 23:55:00,
2013-08-30 19:00:00,89.3,73.1,29.79,WNW,287,0.0,0.0,59,0.00,,CLR,0.00,VWS V14.01,2013-08-31 00:00:00,
2013-08-30 19:05:00,89.0,73.3,29.80,WNW,287,0.0,0.0,60,0.00,,CLR,0.00,VWS V14.01,2013-08-31 00:05:00,
2013-08-30 19:10:00,88.8,73.6,29.80,WNW,288,0.0,0.0,61,0.00,,CLR,0.00,VWS V14.01,2013-08-31 00:10:00,
2013-08-30 19:15:00,88.6,73.9,29.80,WNW,287,0.0,0.0,62,0.00,,CLR,0.00,VWS V14.01,2013-08-31 00:15:00,
2013-08-30 19:20:00,88.4,73.7,29.80,WNW,287,0.0,0.0,62,0.00,,CLR,0.00,VWS V14.01,2013-08-31 00:20:00,
2013-08-30 19:25:00,88.1,73.4,29.80,WNW,287,0.0,0.0,62,0.00,,CLR,0.00,VWS V14.01,2013-08-31 00:25:00,
2013-08-30 19:30:00,87.9,73.7,29.80,WNW,287,0.0,0.0,63,0.00,,CLR,0.00,VWS V14.01,2013-08-31 00:30:00,
2013-08-30 19:35:00,87.6,73.5,29.80,WNW,287,0.0,0.0,63,0.00,,CLR,0.00,VWS V14.01,2013-08-31 00:35:00,
2013-08-30 19:40:00,87.3,73.6,29.80,WNW,287,0.0,0.0,64,0.00,,CLR,0.00,VWS V14.01,2013-08-31 00:40:00,
2013-08-30 19:45:00,87.0,73.8,29.80,WNW,287,0.0,0.0,65,0.00,,CLR,0.00,VWS V14.01,2013-08-31 00:45:00,
2013-08-30 19:50:00,86.7,73.5,29.80,WNW,287,0.0,0.0,65,0.00,,CLR,0.00,VWS V14.01,2013-08-31 00:50:00,
2013-08-30 19:55:00,86.3,73.6,29.80,WNW,287,0.0,0.0,66,0.00,,CLR,0.00,VWS V14.01,2013-08-31 00:55:00,
2013-08-30 20:00:00,85.9,73.7,29.80,WNW,287,0.0,0.0,67,0.00,,CLR,0.00,VWS V14.01,2013-08-31 01:00:00,
2013-08-30 20:05:00,85.6,73.8,29.80,WNW,287,0.0,0.0,68,0.00,,CLR,0.00,VWS V14.01,2013-08-31 01:05:00,
2013-08-30 20:10:00,85.5,73.7,29.80,WNW,287,0.0,0.0,68,0.00,,CLR,0.00,VWS V14.01,2013-08-31 01:10:00,
2013-08-30 20:11:00,85.3,73.6,29.80,WNW,287,0.0,0.0,68,0.00,,CLR,0.00,VWS V14.01,2013-08-31 01:11:00,
2013-08-30 20:16:00,85.1,73.8,29.80,WNW,287,0.0,0.0,69,0.00,,CLR,0.00,VWS V14.01,2013-08-31 01:16:00,
2013-08-30 20:20:00,85.0,73.7,29.80,WNW,287,0.0,0.0,69,0.00,,CLR,0.00,VWS V14.01,2013-08-31 01:20:00,
2013-08-30 20:21:00,85.0,73.7,29.79,WNW,287,0.0,0.0,69,0.00,,CLR,0.00,VWS V14.01,2013-08-31 01:21:00,
2013-08-30 20:26:00,85.0,74.1,29.80,WNW,287,0.0,0.0,70,0.00,,CLR,0.00,VWS V14.01,2013-08-31 01:26:00,
2013-08-30 20:30:00,84.9,74.0,29.80,WNW,287,0.0,0.0,70,0.00,,CLR,0.00,VWS V14.01,2013-08-31 01:30:00,
2013-08-30 20:31:00,84.8,73.9,29.80,WNW,287,0.0,0.0,70,0.00,,CLR,0.00,VWS V14.01,2013-08-31 01:31:00,
2013-08-30 20:36:00,84.7,73.8,29.80,WNW,287,0.0,0.0,70,0.00,,CLR,0.00,VWS V14.01,2013-08-31 01:36:00,
2013-08-30 20:40:00,84.5,73.7,29.80,WNW,287,0.0,0.0,70,0.00,,CLR,0.00,VWS V14.01,2013-08-31 01:40:00,
2013-08-30 20:41:00,84.5,73.7,29.80,WNW,287,0.0,0.0,70,0.00,,CLR,0.00,VWS V14.01,2013-08-31 01:41:00,
2013-08-30 20:46:00,84.3,73.9,29.80,WNW,287,0.0,0.0,71,0.00,,CLR,0.00,VWS V14.01,2013-08-31 01:46:00,
2013-08-30 20:50:00,84.3,73.9,29.80,WNW,287,0.0,0.0,71,0.00,,CLR,0.00,VWS V14.01,2013-08-31 01:50:00,
2013-08-30 20:51:00,84.2,73.8,29.80,WNW,287,0.0,0.0,71,0.00,,CLR,0.00,VWS V14.01,2013-08-31 01:51:00,
2013-08-30 20:56:00,84.0,73.6,29.80,WNW,285,0.0,0.0,71,0.00,,CLR,0.00,VWS V14.01,2013-08-31 01:56:00,
2013-08-30 21:00:00,84.0,73.6,29.80,WNW,285,0.0,0.0,71,0.00,,CLR,0.00,VWS V14.01,2013-08-31 02:00:00,
2013-08-30 21:01:00,83.9,73.5,29.81,WNW,290,0.0,0.0,71,0.00,,BKN110,0.00,VWS V14.01,2013-08-31 02:01:00,
2013-08-30 21:06:00,84.1,73.7,29.81,ESE,117,0.0,2.0,71,0.00,,BKN110,0.00,VWS V14.01,2013-08-31 02:06:00,
2013-08-30 21:10:00,84.2,73.8,29.81,East,95,1.0,2.0,71,0.00,,CLR,0.00,VWS V14.01,2013-08-31 02:10:00,
2013-08-30 21:11:00,84.1,73.7,29.81,East,94,0.0,1.0,71,0.00,,BKN110,0.00,VWS V14.01,2013-08-31 02:11:00,
2013-08-30 21:16:00,83.8,73.8,29.81,East,87,0.0,3.0,72,0.00,,BKN110,0.00,VWS V14.01,2013-08-31 02:16:00,
2013-08-30 21:20:00,83.8,74.2,29.81,East,87,0.0,3.0,73,0.00,,CLR,0.00,VWS V14.01,2013-08-31 02:20:00,
2013-08-30 21:21:00,83.5,73.5,29.82,NE,56,6.0,14.0,72,0.00,,SCT110,0.00,VWS V14.01,2013-08-31 02:21:00,
2013-08-30 21:26:00,82.1,70.9,29.83,ENE,77,5.0,14.0,69,0.00,,SCT110,0.00,VWS V14.01,2013-08-31 02:26:00,
2013-08-30 21:30:00,81.4,69.0,29.83,ESE,108,6.0,14.0,66,0.00,,CLR,0.00,VWS V14.01,2013-08-31 02:30:00,
2013-08-30 21:31:00,80.3,67.9,29.84,ESE,120,7.0,10.0,66,0.00,,SCT110,0.00,VWS V14.01,2013-08-31 02:31:00,
2013-08-30 21:36:00,79.4,67.1,29.84,ENE,74,3.0,11.0,66,0.00,,SCT110,0.00,VWS V14.01,2013-08-31 02:36:00,
2013-08-30 21:40:00,79.3,67.0,29.84,ENE,68,7.0,11.0,66,0.00,,CLR,0.00,VWS V14.01,2013-08-31 02:40:00,
2013-08-30 21:41:00,78.8,66.5,29.84,ESE,103,6.0,11.0,66,0.00,,SCT110,0.00,VWS V14.01,2013-08-31 02:41:00,
2013-08-30 21:47:00,78.4,66.6,29.85,ENE,76,1.0,12.0,67,0.00,,SCT110,0.00,VWS V14.01,2013-08-31 02:47:00,
2013-08-30 21:50:00,78.3,66.4,29.85,NE,46,1.0,12.0,67,0.00,,CLR,0.00,VWS V14.01,2013-08-31 02:50:00,
2013-08-30 21:52:00,78.0,66.2,29.85,ESE,113,4.0,14.0,67,0.00,,SCT110,0.00,VWS V14.01,2013-08-31 02:52:00,
2013-08-30 21:57:00,77.7,66.3,29.85,NE,54,3.0,14.0,68,0.00,,SCT110,0.00,VWS V14.01,2013-08-31 02:57:00,
2013-08-30 22:00:00,77.6,65.8,29.85,East,86,2.0,14.0,67,0.00,,CLR,0.00,VWS V14.01,2013-08-31 03:00:00,
2013-08-30 22:02:00,77.4,66.0,29.85,ENE,58,2.0,8.0,68,0.00,,SCT090,0.00,VWS V14.01,2013-08-31 03:02:00,
2013-08-30 22:07:00,77.2,65.8,29.85,ENE,65,4.0,12.0,68,0.00,,SCT090,0.00,VWS V14.01,2013-08-31 03:07:00,
2013-08-30 22:10:00,77.2,65.8,29.85,East,91,4.0,12.0,68,0.00,,CLR,0.00,VWS V14.01,2013-08-31 03:10:00,
2013-08-30 22:12:00,77.1,65.7,29.85,ESE,103,6.0,12.0,68,0.00,,SCT090,0.00,VWS V14.01,2013-08-31 03:12:00,
2013-08-30 22:17:00,76.9,65.5,29.85,NE,46,2.0,12.0,68,0.00,,SCT090,0.00,VWS V14.01,2013-08-31 03:17:00,
2013-08-30 22:20:00,76.9,65.5,29.85,SE,131,8.0,12.0,68,0.00,,CLR,0.00,VWS V14.01,2013-08-31 03:20:00,
2013-08-30 22:22:00,76.7,65.8,29.86,ESE,105,4.0,10.0,69,0.00,,CLR,0.00,VWS V14.01,2013-08-31 03:22:00,
2013-08-30 22:27:00,76.5,66.0,29.86,East,101,3.0,12.0,70,0.00,,CLR,0.00,VWS V14.01,2013-08-31 03:27:00,
2013-08-30 22:30:00,76.4,65.9,29.86,ESE,111,3.0,12.0,70,0.00,,CLR,0.00,VWS V14.01,2013-08-31 03:30:00,
2013-08-30 22:32:00,76.2,65.7,29.86,East,91,6.0,14.0,70,0.00,,CLR,0.00,VWS V14.01,2013-08-31 03:32:00,
2013-08-30 22:37:00,76.1,66.0,29.85,ESE,103,6.0,14.0,71,0.00,,CLR,0.00,VWS V14.01,2013-08-31 03:37:00,
2013-08-30 22:40:00,76.0,65.9,29.85,ESE,106,4.0,14.0,71,0.00,,CLR,0.00,VWS V14.01,2013-08-31 03:40:00,
2013-08-30 22:42:00,75.9,65.8,29.85,SE,124,3.0,6.0,71,0.00,,CLR,0.00,VWS V14.01,2013-08-31 03:42:00,
2013-08-30 22:47:00,75.7,66.0,29.84,NW,313,1.0,9.0,72,0.00,,CLR,0.00,VWS V14.01,2013-08-31 03:47:00,
2013-08-30 22:50:00,75.7,66.0,29.84,SSE,150,4.0,9.0,72,0.00,,CLR,0.00,VWS V14.01,2013-08-31 03:50:00,
2013-08-30 22:52:00,75.6,65.9,29.84,East,97,6.0,10.0,72,0.00,,CLR,0.00,VWS V14.01,2013-08-31 03:52:00,
2013-08-30 22:57:00,75.5,65.8,29.84,SW,223,5.0,12.0,72,0.00,,CLR,0.00,VWS V14.01,2013-08-31 03:57:00,
2013-08-30 23:00:00,75.5,65.8,29.83,SSE,150,5.0,12.0,72,0.00,,CLR,0.00,VWS V14.01,2013-08-31 04:00:00,
2013-08-30 23:01:00,75.5,65.8,29.83,ESE,108,4.0,7.0,72,0.00,,CLR,0.00,VWS V14.01,2013-08-31 04:01:00,
2013-08-30 23:02:00,75.5,65.8,29.83,SSE,155,3.0,9.0,72,0.00,,CLR,0.00,VWS V14.01,2013-08-31 04:02:00,
2013-08-30 23:04:00,75.4,65.8,29.83,East,101,6.0,9.0,72,0.00,,CLR,0.00,VWS V14.01,2013-08-31 04:04:00,
2013-08-30 23:08:00,75.3,65.7,29.83,ESE,114,3.0,10.0,72,0.00,,CLR,0.00,VWS V14.01,2013-08-31 04:08:00,
2013-08-30 23:10:00,75.3,65.7,29.83,ESE,114,3.0,10.0,72,0.00,,CLR,0.00,VWS V14.01,2013-08-31 04:10:00,
2013-08-30 23:13:00,75.2,65.6,29.83,SE,146,4.0,10.0,72,0.00,,CLR,0.00,VWS V14.01,2013-08-31 04:13:00,
2013-08-30 23:18:00,75.0,65.4,29.83,East,85,3.0,6.0,72,0.00,,CLR,0.00,VWS V14.01,2013-08-31 04:18:00,
2013-08-30 23:20:00,75.0,65.4,29.83,ESE,109,6.0,10.0,72,0.00,,CLR,0.00,VWS V14.01,2013-08-31 04:20:00,
2013-08-30 23:23:00,74.9,65.7,29.83,East,91,6.0,10.0,73,0.00,,CLR,0.00,VWS V14.01,2013-08-31 04:23:00,
2013-08-30 23:28:00,74.8,65.6,29.83,East,83,2.0,3.0,73,0.00,,CLR,0.00,VWS V14.01,2013-08-31 04:28:00,
2013-08-30 23:30:00,74.8,65.6,29.83,South,180,3.0,10.0,73,0.00,,CLR,0.00,VWS V14.01,2013-08-31 04:30:00,
2013-08-30 23:33:00,74.7,65.5,29.83,East,100,2.0,8.0,73,0.00,,CLR,0.00,VWS V14.01,2013-08-31 04:33:00,
2013-08-30 23:38:00,74.6,65.4,29.83,SE,144,1.0,4.0,73,0.00,,CLR,0.00,VWS V14.01,2013-08-31 04:38:00,
2013-08-30 23:40:00,74.6,65.4,29.83,SE,129,3.0,8.0,73,0.00,,CLR,0.00,VWS V14.01,2013-08-31 04:40:00,
2013-08-30 23:43:00,74.5,65.7,29.82,ESE,111,2.0,6.0,74,0.00,,CLR,0.00,VWS V14.01,2013-08-31 04:43:00,
2013-08-30 23:48:00,74.3,65.5,29.82,East,89,1.0,5.0,74,0.00,,CLR,0.00,VWS V14.01,2013-08-31 04:48:00,
2013-08-30 23:50:00,74.3,65.5,29.82,East,97,2.0,7.0,74,0.00,,CLR,0.00,VWS V14.01,2013-08-31 04:50:00,
2013-08-30 23:53:00,74.3,65.5,29.81,SSE,147,1.0,6.0,74,0.00,,CLR,0.00,VWS V14.01,2013-08-31 04:53:00,
2013-08-30 23:58:00,74.2,65.4,29.81,ESE,111,4.0,4.0,74,0.00,,CLR,0.00,VWS V14.01,2013-08-31 04:58:00,